Time;durP1;ratioP1;P1;durP2;ratioP2;P2;SDS_P1;SDS_P2;PMS_P1;PMS_P2;Temp;Humidity;BMP_temperature;BMP_pressure;BME280_temperature;BME280_humidity;BME280_pressure;Samples;Min_cycle;Max_cycle;Signal;HPM_P1;HPM_P2
2022/12/11 00:01:27;;;;;;;;;37.75;24.00;;;;;2.42;68.09;100943.38;5099325;27;45338;-53
2022/12/11 00:03:52;;;;;;;;;31.50;26.00;;;;;2.38;67.41;100926.13;5098970;27;45419;-51
2022/12/11 00:06:20;;;;;;;;;27.00;27.00;;;;;2.45;68.05;100951.09;5098922;27;45378;-50
2022/12/11 00:08:46;;;;;;;;;33.25;28.75;;;;;2.40;68.27;100945.22;5098958;27;45406;-52
2022/12/11 00:11:15;;;;;;;;;35.25;24.00;;;;;2.38;68.30;100947.13;5099208;27;45345;-52
2022/12/11 00:13:41;;;;;;;;;36.00;29.25;;;;;2.33;68.54;100943.91;5097494;27;46183;-54
2022/12/11 00:16:07;;;;;;;;;28.50;26.25;;;;;2.31;67.99;100944.00;5097471;27;45358;-52
2022/12/11 00:18:32;;;;;;;;;25.75;24.75;;;;;2.25;68.50;100937.31;5098976;27;45452;-50
2022/12/11 00:21:06;;;;;;;;;36.50;24.75;;;;;2.20;68.82;100923.63;5099030;27;45440;-53
2022/12/11 00:23:33;;;;;;;;;34.25;16.50;;;;;2.22;68.23;100931.41;5098064;27;45444;-51
2022/12/11 00:25:59;;;;;;;;;29.25;23.25;;;;;2.20;68.05;100928.03;5098691;27;45373;-52
2022/12/11 00:28:24;;;;;;;;;22.50;20.75;;;;;2.18;68.37;100925.47;5098668;27;45440;-51
2022/12/11 00:30:50;;;;;;;;;29.75;18.25;;;;;2.15;67.98;100923.06;5098694;27;45398;-50
2022/12/11 00:33:16;;;;;;;;;23.25;12.25;;;;;2.05;68.49;100911.38;5098474;27;45654;-51
2022/12/11 00:35:45;;;;;;;;;27.50;20.00;;;;;2.00;68.19;100898.53;5098330;27;45474;-53
2022/12/11 00:38:16;;;;;;;;;39.00;21.25;;;;;1.97;68.68;100905.72;5098790;27;45374;-53
2022/12/11 00:40:42;;;;;;;;;26.75;21.75;;;;;1.97;68.99;100911.81;5098760;27;45326;-50
2022/12/11 00:43:07;;;;;;;;;33.00;25.50;;;;;1.97;69.52;100909.19;5098244;27;46819;-53
2022/12/11 00:45:37;;;;;;;;;16.50;12.75;;;;;1.81;68.74;100887.38;5098511;27;45260;-50
2022/12/11 00:48:03;;;;;;;;;37.50;29.00;;;;;1.92;69.67;100913.84;5098168;27;45492;-53
2022/12/11 00:50:28;;;;;;;;;25.50;23.25;;;;;1.82;69.85;100896.13;5098353;27;45347;-51
2022/12/11 00:52:54;;;;;;;;;34.00;25.75;;;;;1.91;69.50;100896.44;5098086;27;45364;-50
2022/12/11 00:55:19;;;;;;;;;35.50;23.50;;;;;1.87;69.93;100891.44;5098008;27;45433;-49
2022/12/11 00:57:44;;;;;;;;;36.00;22.50;;;;;1.90;69.85;100902.63;5098208;27;45317;-52
2022/12/11 01:00:11;;;;;;;;;30.75;23.00;;;;;1.93;69.70;100901.59;5098242;27;45498;-51
2022/12/11 01:02:36;;;;;;;;;27.00;23.50;;;;;1.94;69.49;100903.28;5098018;27;46195;-51
2022/12/11 01:05:02;;;;;;;;;31.50;21.00;;;;;1.86;69.22;100889.78;5098047;27;45370;-50
2022/12/11 01:07:28;;;;;;;;;30.00;24.00;;;;;1.81;69.39;100884.75;5097858;27;45322;-53
2022/12/11 01:12:37;;;;;;;;;24.50;19.50;;;;;1.96;68.95;100893.53;5097907;27;45220;-50
2022/12/11 01:15:02;;;;;;;;;22.00;17.50;;;;;1.95;68.98;100899.72;5097750;27;45460;-51
2022/12/11 01:17:28;;;;;;;;;20.50;19.50;;;;;1.87;69.57;100889.66;5097457;27;45232;-48
2022/12/11 01:19:53;;;;;;;;;23.00;15.00;;;;;1.90;69.50;100891.28;5098148;27;45157;-50
2022/12/11 01:22:19;;;;;;;;;26.00;17.00;;;;;1.89;69.31;100889.56;5097845;27;45531;-50
2022/12/11 01:24:44;;;;;;;;;23.25;18.50;;;;;1.83;69.16;100897.81;5098030;27;45485;-51
2022/12/11 01:27:10;;;;;;;;;20.50;16.25;;;;;1.77;69.41;100883.28;5096079;27;45324;-51
2022/12/11 01:29:35;;;;;;;;;31.00;18.25;;;;;1.78;69.39;100890.19;5097874;27;45298;-50
2022/12/11 01:32:00;;;;;;;;;21.00;15.50;;;;;1.74;69.43;100881.66;5097665;27;46075;-50
2022/12/11 01:34:29;;;;;;;;;19.75;15.75;;;;;1.81;69.17;100892.63;5097520;27;45385;-51
2022/12/11 01:36:54;;;;;;;;;20.50;15.50;;;;;1.83;69.24;100901.28;5097922;27;45483;-51
2022/12/11 01:39:19;;;;;;;;;22.25;14.00;;;;;1.81;68.95;100897.03;5097817;27;45330;-53
2022/12/11 01:41:45;;;;;;;;;16.75;13.00;;;;;1.70;69.23;100893.25;5097365;27;45885;-52
2022/12/11 01:44:13;;;;;;;;;25.50;21.25;;;;;1.67;69.08;100900.44;5097763;27;45437;-50
2022/12/11 01:46:40;;;;;;;;;26.25;16.00;;;;;1.64;69.28;100905.84;5097399;27;45364;-53
2022/12/11 01:49:11;;;;;;;;;24.50;18.25;;;;;1.62;69.02;100903.31;5097512;27;45394;-48
2022/12/11 01:52:11;;;;;;;;;20.00;11.75;;;;;1.65;69.47;100907.56;5097124;27;47354;-52
2022/12/11 01:54:36;;;;;;;;;18.50;18.50;;;;;1.63;69.27;100897.13;5054456;28;45423;-50
2022/12/11 01:57:05;;;;;;;;;18.25;14.75;;;;;1.68;69.44;100908.22;5054429;28;45495;-49
2022/12/11 01:59:34;;;;;;;;;13.75;10.00;;;;;1.63;68.52;100915.50;5054683;28;45318;-52
2022/12/11 02:02:07;;;;;;;;;13.50;12.25;;;;;1.45;68.74;100904.25;5054262;28;46265;-52
2022/12/11 02:04:35;;;;;;;;;13.75;9.25;;;;;1.50;68.58;100919.72;5054472;28;45489;-49
2022/12/11 02:07:02;;;;;;;;;11.50;11.50;;;;;1.40;68.63;100921.19;5054482;28;45457;-52
2022/12/11 02:09:31;;;;;;;;;21.25;13.25;;;;;1.30;69.46;100909.47;5054474;28;45541;-52
2022/12/11 02:12:02;;;;;;;;;15.50;12.50;;;;;1.29;69.36;100902.56;5054261;28;45360;-50
2022/12/11 02:14:48;;;;;;;;;15.00;12.50;;;;;1.28;69.20;100895.63;5054260;28;45424;-52
2022/12/11 02:17:22;;;;;;;;;20.00;17.00;;;;;1.24;69.84;100890.56;5054340;28;45308;-49
2022/12/11 02:19:47;;;;;;;;;17.75;14.00;;;;;1.30;69.63;100899.84;5054507;28;45472;-52
2022/12/11 02:22:31;;;;;;;;;18.75;15.00;;;;;1.23;69.90;100888.88;5054128;28;46299;-53
2022/12/11 02:25:24;;;;;;;;;23.00;15.00;;;;;1.28;69.95;100891.22;5053918;28;45673;-50
2022/12/11 02:27:56;;;;;;;;;23.50;15.25;;;;;1.31;70.39;100879.75;5054159;28;45301;-51
2022/12/11 02:30:22;;;;;;;;;21.75;12.25;;;;;1.32;70.52;100878.81;5056127;27;45988;-51
2022/12/11 02:32:57;;;;;;;;;20.50;12.00;;;;;1.36;69.58;100877.72;5096801;27;45448;-52
2022/12/11 02:35:39;;;;;;;;;21.00;16.00;;;;;1.39;70.14;100878.41;5096780;27;45244;-53
2022/12/11 02:38:11;;;;;;;;;13.25;10.50;;;;;1.31;69.49;100879.75;5096839;27;45342;-52
2022/12/11 02:40:40;;;;;;;;;14.50;12.50;;;;;1.32;70.13;100877.03;5100714;27;45357;-49
2022/12/11 02:43:12;;;;;;;;;16.50;13.50;;;;;1.29;69.83;100876.34;5100401;27;46808;-53
2022/12/11 02:45:40;;;;;;;;;18.75;13.00;;;;;1.23;70.01;100875.75;5100159;27;45428;-53
2022/12/11 02:48:09;;;;;;;;;10.00;9.25;;;;;1.19;70.45;100871.63;5100223;27;45607;-52
2022/12/11 02:50:41;;;;;;;;;21.00;17.25;;;;;1.18;70.57;100861.19;5100581;27;45203;-52
2022/12/11 02:53:09;;;;;;;;;22.00;13.00;;;;;1.17;69.79;100859.50;5100028;27;45250;-51
2022/12/11 02:55:37;;;;;;;;;25.75;14.00;;;;;1.13;70.09;100855.38;5100046;27;45359;-51
2022/12/11 02:58:13;;;;;;;;;12.75;11.50;;;;;1.15;70.92;100866.63;5100448;27;45408;-50
2022/12/11 03:00:39;;;;;;;;;20.75;15.50;;;;;1.14;71.16;100863.16;5100161;27;45427;-49
2022/12/11 03:03:05;;;;;;;;;21.25;12.00;;;;;1.15;70.39;100862.22;5100080;27;45887;-51
2022/12/11 03:05:30;;;;;;;;;15.25;10.50;;;;;1.04;70.05;100858.50;5100170;27;45340;-53
2022/12/11 03:07:56;;;;;;;;;20.75;14.25;;;;;1.09;70.26;100873.03;5100104;27;45389;-51
2022/12/11 03:10:22;;;;;;;;;13.50;12.75;;;;;1.08;70.15;100866.09;5100320;27;45194;-49
2022/12/11 03:12:51;;;;;;;;;11.50;8.50;;;;;1.05;69.03;100875.91;5099796;27;45282;-52
2022/12/11 03:15:20;;;;;;;;;12.50;7.50;;;;;1.01;69.87;100877.84;5099551;27;45465;-50
2022/12/11 03:17:45;;;;;;;;;18.00;10.00;;;;;1.02;69.99;100863.00;5100078;27;45431;-49
2022/12/11 03:20:29;;;;;;;;;10.00;10.00;;;;;0.98;70.41;100850.03;5100226;27;45324;-52
2022/12/11 03:23:20;;;;;;;;;14.00;10.25;;;;;1.00;70.29;100856.03;5099395;27;46249;-50
2022/12/11 03:26:02;;;;;;;;;9.00;8.00;;;;;0.96;70.68;100851.88;5099591;27;45247;-52
2022/12/11 03:28:39;;;;;;;;;12.00;10.00;;;;;0.99;70.27;100858.75;5099625;27;45258;-53
2022/12/11 03:31:10;;;;;;;;;10.50;10.50;;;;;1.00;70.39;100857.81;5099809;27;45425;-49
2022/12/11 03:33:46;;;;;;;;;12.75;9.00;;;;;0.99;70.37;100851.72;5099531;27;46169;-51
2022/12/11 03:36:22;;;;;;;;;19.50;17.50;;;;;0.97;70.62;100844.91;5099905;27;45464;-49
2022/12/11 03:39:02;;;;;;;;;15.50;13.00;;;;;1.02;70.42;100834.16;5098116;27;45315;-53
2022/12/11 03:41:30;;;;;;;;;20.00;16.00;;;;;1.07;70.63;100855.72;5099558;27;45392;-52
2022/12/11 03:43:57;;;;;;;;;20.75;13.50;;;;;1.06;70.77;100848.78;5099254;27;46193;-49
2022/12/11 03:46:29;;;;;;;;;25.25;14.00;;;;;1.11;70.95;100854.63;5099323;27;45327;-52
2022/12/11 03:49:01;;;;;;;;;21.25;11.00;;;;;1.15;71.18;100851.75;5099250;27;45400;-51
2022/12/11 03:51:31;;;;;;;;;12.75;12.75;;;;;1.13;70.80;100842.28;5099506;27;45500;-52
2022/12/11 03:53:57;;;;;;;;;18.25;10.00;;;;;1.09;70.45;100844.22;5099339;27;46021;-52
2022/12/11 03:56:26;;;;;;;;;22.50;15.00;;;;;1.03;71.08;100838.47;5099332;27;45486;-50
2022/12/11 03:58:51;;;;;;;;;17.00;11.50;;;;;1.05;71.05;100847.91;5099566;27;45373;-51
2022/12/11 04:01:16;;;;;;;;;12.00;10.00;;;;;1.03;70.64;100848.94;5099282;27;45282;-48
2022/12/11 04:03:42;;;;;;;;;14.75;11.00;;;;;0.97;70.64;100853.59;5099231;27;46101;-49
2022/12/11 04:06:07;;;;;;;;;12.75;12.75;;;;;0.90;69.65;100854.00;5099278;27;45332;-51
2022/12/11 04:08:33;;;;;;;;;9.75;7.00;;;;;0.83;69.97;100850.00;5099260;27;45749;-49
2022/12/11 04:13:42;;;;;;;;;12.00;8.50;;;;;0.69;70.54;100842.91;5099171;27;45360;-49
2022/12/11 04:16:08;;;;;;;;;14.00;9.25;;;;;0.63;70.85;100840.59;5098658;27;45240;-53
2022/12/11 04:24:13;;;;;;;;;15.75;9.00;;;;;0.63;71.22;100837.97;5099530;27;45746;-50
2022/12/11 04:26:39;;;;;;;;;10.75;9.00;;;;;0.61;71.43;100840.69;5099464;27;45400;-48
2022/12/11 04:29:05;;;;;;;;;9.50;8.50;;;;;0.63;71.54;100838.84;5099403;27;45298;-52
2022/12/11 04:31:30;;;;;;;;;17.00;11.00;;;;;0.58;71.44;100832.97;5099434;27;45319;-51
2022/12/11 04:33:55;;;;;;;;;18.00;10.00;;;;;0.59;71.72;100837.31;5098918;27;45348;-51
2022/12/11 04:36:21;;;;;;;;;11.00;7.50;;;;;0.64;71.41;100839.69;5099081;27;45286;-54
2022/12/11 04:38:46;;;;;;;;;17.25;10.00;;;;;0.59;70.78;100823.34;5099028;27;45305;-50
2022/12/11 04:41:14;;;;;;;;;18.00;11.00;;;;;0.52;71.41;100812.38;5098675;27;45196;-51
2022/12/11 04:43:40;;;;;;;;;18.75;13.50;;;;;0.64;71.92;100821.38;5098487;27;46889;-51
2022/12/11 04:46:11;;;;;;;;;14.25;13.00;;;;;0.65;72.00;100833.53;5098358;27;45358;-50
2022/12/11 04:48:37;;;;;;;;;15.50;10.00;;;;;0.57;71.96;100828.69;5098256;27;45398;-48
2022/12/11 04:51:03;;;;;;;;;13.75;9.75;;;;;0.56;71.92;100821.75;5098630;27;45472;-49
2022/12/11 04:53:29;;;;;;;;;14.50;11.00;;;;;0.56;71.56;100823.53;5098011;27;45261;-53
2022/12/11 04:55:55;;;;;;;;;16.75;10.50;;;;;0.53;72.22;100811.44;5098495;27;45402;-52
2022/12/11 04:58:21;;;;;;;;;9.25;8.50;;;;;0.49;72.07;100810.75;5098434;27;45262;-51
2022/12/11 05:00:47;;;;;;;;;18.00;13.75;;;;;0.47;72.49;100809.16;5098361;27;45374;-49
2022/12/11 05:03:14;;;;;;;;;10.75;6.25;;;;;0.50;71.22;100812.44;5097660;27;46056;-51
2022/12/11 05:05:39;;;;;;;;;9.25;7.25;;;;;0.49;71.66;100805.53;5098139;27;45467;-50
2022/12/11 05:08:04;;;;;;;;;15.50;12.00;;;;;0.47;72.19;100811.78;5098227;27;45349;-52
2022/12/11 05:10:30;;;;;;;;;15.25;10.50;;;;;0.46;72.27;100810.06;5098391;27;45599;-52
2022/12/11 05:12:55;;;;;;;;;12.25;8.75;;;;;0.41;72.54;100807.69;5097796;27;45412;-50
2022/12/11 05:15:21;;;;;;;;;16.50;13.00;;;;;0.35;72.23;100802.78;5096629;27;45336;-52
2022/12/11 05:17:46;;;;;;;;;18.00;12.50;;;;;0.35;72.13;100808.03;5097994;27;45193;-53
2022/12/11 05:20:12;;;;;;;;;11.25;9.25;;;;;0.42;72.49;100803.31;5098409;27;45246;-50
2022/12/11 05:22:38;;;;;;;;;6.00;3.00;;;;;0.39;71.81;100803.47;5097885;27;45464;-49
2022/12/11 05:25:04;;;;;;;;;13.00;9.25;;;;;0.26;71.33;100781.50;5097731;27;45243;-51
2022/12/11 05:27:30;;;;;;;;;10.50;6.25;;;;;0.38;72.59;100804.38;5096565;27;45385;-50
2022/12/11 05:29:55;;;;;;;;;11.75;9.00;;;;;0.41;72.08;100796.38;5098125;27;45229;-52
2022/12/11 05:32:21;;;;;;;;;15.50;12.50;;;;;0.41;72.33;100805.06;5097549;27;46141;-54
2022/12/11 05:34:46;;;;;;;;;12.00;12.00;;;;;0.40;71.65;100803.41;5097889;27;45344;-52
2022/12/11 05:37:11;;;;;;;;;14.75;10.00;;;;;0.38;71.28;100810.50;5097695;27;45689;-50
2022/12/11 05:39:38;;;;;;;;;18.50;9.75;;;;;0.20;71.65;100786.09;5097886;27;45282;-49
2022/12/11 05:42:03;;;;;;;;;17.50;13.00;;;;;0.21;72.38;100798.28;5097651;27;45887;-52
2022/12/11 05:44:28;;;;;;;;;17.00;10.25;;;;;0.31;72.59;100806.50;5097539;27;45264;-51
2022/12/11 05:46:54;;;;;;;;;17.75;12.25;;;;;0.33;72.17;100801.16;5097289;27;45499;-52
2022/12/11 05:49:20;;;;;;;;;18.00;12.00;;;;;0.20;72.42;100790.50;5097553;27;45525;-49
2022/12/11 05:51:45;;;;;;;;;12.00;9.50;;;;;0.24;73.06;100800.72;5097467;27;46310;-54
2022/12/11 05:54:10;;;;;;;;;20.00;13.50;;;;;0.28;73.01;100803.19;5097430;27;45309;-50
2022/12/11 05:56:36;;;;;;;;;11.75;6.00;;;;;0.22;72.80;100791.28;5097626;27;45389;-53
2022/12/11 05:59:04;;;;;;;;;12.50;12.00;;;;;0.21;72.71;100800.03;5097776;27;45465;-53
2022/12/11 06:01:41;;;;;;;;;26.25;12.75;;;;;0.21;72.36;100800.91;5097155;27;46288;-53
2022/12/11 06:04:08;;;;;;;;;18.25;12.75;;;;;0.19;72.04;100794.03;5097203;27;45373;-51
2022/12/11 06:06:35;;;;;;;;;14.50;11.50;;;;;0.16;72.08;100796.81;5097584;27;45326;-55
2022/12/11 06:09:00;;;;;;;;;17.75;12.50;;;;;0.14;72.12;100794.28;5097472;27;45361;-53
2022/12/11 06:11:27;;;;;;;;;17.75;13.50;;;;;0.10;72.01;100799.75;5097465;27;46658;-54
2022/12/11 06:13:54;;;;;;;;;22.75;12.00;;;;;0.02;73.15;100794.91;5098275;27;45349;-57
2022/12/11 06:16:20;;;;;;;;;20.00;13.50;;;;;0.02;72.49;100791.47;5100669;27;45337;-53
2022/12/11 06:18:46;;;;;;;;;21.50;15.00;;;;;0.01;72.50;100797.63;5101419;27;45302;-47
2022/12/11 06:21:27;;;;;;;;;19.50;12.50;;;;;-0.04;72.09;100801.31;5100621;27;46109;-50
2022/12/11 06:23:54;;;;;;;;;17.75;13.50;;;;;-0.04;72.40;100792.63;5100553;27;45407;-53
2022/12/11 06:26:20;;;;;;;;;18.00;15.00;;;;;-0.02;72.77;100785.53;5100792;27;45317;-52
2022/12/11 06:28:46;;;;;;;;;19.75;14.00;;;;;-0.02;72.99;100789.00;5100849;27;45464;-51
2022/12/11 06:31:12;;;;;;;;;18.25;14.75;;;;;-0.03;72.19;100787.31;5099031;27;46409;-52
2022/12/11 06:33:38;;;;;;;;;24.75;15.75;;;;;0.02;72.19;100778.38;5099035;27;45451;-49
2022/12/11 06:36:07;;;;;;;;;23.75;17.00;;;;;-0.08;72.92;100760.56;5100545;27;45325;-53
2022/12/11 06:38:32;;;;;;;;;18.25;17.00;;;;;-0.08;72.33;100765.78;5100757;27;45520;-51
2022/12/11 06:41:00;;;;;;;;;21.50;17.50;;;;;-0.02;72.42;100780.31;5100280;27;46244;-52
2022/12/11 06:43:25;;;;;;;;;25.75;16.50;;;;;-0.03;73.10;100763.75;5100078;27;45419;-53
2022/12/11 06:45:51;;;;;;;;;25.50;18.00;;;;;0.03;72.13;100761.75;5100476;27;45383;-52
2022/12/11 06:48:17;;;;;;;;;22.25;14.75;;;;;-0.03;72.35;100752.47;5100274;27;45470;-53
2022/12/11 06:50:42;;;;;;;;;40.00;27.25;;;;;0.08;72.60;100771.03;5100079;27;47234;-54
2022/12/11 06:53:10;;;;;;;;;33.75;20.50;;;;;0.07;72.59;100764.13;5100219;27;45418;-51
2022/12/11 06:55:36;;;;;;;;;29.25;18.75;;;;;0.10;71.76;100771.00;5100290;27;45391;-53
2022/12/11 06:58:01;;;;;;;;;28.25;26.50;;;;;0.04;72.59;100766.06;5100384;27;45393;-52
2022/12/11 07:00:27;;;;;;;;;36.00;24.75;;;;;0.06;72.82;100772.91;5100203;27;45321;-51
2022/12/11 07:02:53;;;;;;;;;41.25;27.50;;;;;-0.04;72.07;100754.25;5100048;27;45342;-51
2022/12/11 07:05:18;;;;;;;;;28.25;22.50;;;;;0.03;72.34;100759.97;5100122;27;45249;-51
2022/12/11 07:07:44;;;;;;;;;29.00;21.00;;;;;0.05;71.87;100766.00;5100178;27;45460;-51
2022/12/11 07:10:09;;;;;;;;;34.75;24.75;;;;;0.08;72.48;100772.81;5099683;27;46174;-49
2022/12/11 07:12:36;;;;;;;;;41.75;31.50;;;;;0.06;72.31;100767.69;5099872;27;45255;-53
2022/12/11 07:15:02;;;;;;;;;43.50;30.00;;;;;0.03;72.35;100762.59;5100160;27;45335;-51
2022/12/11 07:17:28;;;;;;;;;30.00;26.75;;;;;0.03;72.69;100765.22;5099982;27;45456;-51
2022/12/11 07:19:54;;;;;;;;;43.75;32.00;;;;;0.06;73.13;100772.06;5099532;27;46337;-50
2022/12/11 07:22:19;;;;;;;;;33.00;26.75;;;;;0.12;72.41;100771.75;5099866;27;45336;-51
2022/12/11 07:24:45;;;;;;;;;30.50;25.50;;;;;0.15;71.72;100780.28;5099176;27;45574;-51
2022/12/11 07:27:10;;;;;;;;;33.25;24.50;;;;;0.18;71.92;100784.50;5100004;27;45346;-53
2022/12/11 07:29:36;;;;;;;;;37.25;26.50;;;;;0.15;71.70;100780.28;5099444;27;46155;-48
2022/12/11 07:32:01;;;;;;;;;38.25;27.00;;;;;0.14;71.41;100781.22;5099358;27;45512;-52
2022/12/11 07:34:26;;;;;;;;;32.50;23.75;;;;;0.13;71.74;100787.38;5100332;27;45402;-48
2022/12/11 07:36:52;;;;;;;;;44.75;27.75;;;;;0.16;71.26;100791.59;5100009;27;45266;-51
2022/12/11 07:39:17;;;;;;;;;31.50;24.75;;;;;0.19;70.92;100784.44;5099479;27;46076;-50
2022/12/11 07:41:42;;;;;;;;;33.50;26.50;;;;;0.20;71.73;100787.88;5099377;27;45326;-48
2022/12/11 07:44:08;;;;;;;;;37.75;26.25;;;;;0.23;71.92;100790.34;5098123;27;45339;-49
2022/12/11 07:46:34;;;;;;;;;29.00;25.00;;;;;0.21;71.14;100782.59;5099861;27;45280;-52
2022/12/11 07:49:00;;;;;;;;;32.50;17.75;;;;;0.22;71.14;100794.75;5098724;27;46168;-52
2022/12/11 07:51:30;;;;;;;;;40.75;25.50;;;;;0.26;71.24;100786.75;5099380;27;45313;-52
2022/12/11 07:54:02;;;;;;;;;43.75;29.00;;;;;0.29;71.38;100782.16;5099208;27;45353;-47
2022/12/11 07:56:28;;;;;;;;;43.25;27.00;;;;;0.31;70.81;100785.56;5099532;27;45490;-49
2022/12/11 07:58:54;;;;;;;;;34.25;26.50;;;;;0.24;70.90;100779.78;5099023;27;46118;-51
2022/12/11 08:01:22;;;;;;;;;37.75;32.25;;;;;0.28;71.14;100779.66;5099250;27;45436;-52
2022/12/11 08:03:49;;;;;;;;;43.25;30.75;;;;;0.31;70.92;100784.72;5098946;27;45383;-50
2022/12/11 08:06:15;;;;;;;;;30.50;21.50;;;;;0.30;70.61;100783.03;5099176;27;45405;-51
2022/12/11 08:08:42;;;;;;;;;34.25;21.25;;;;;0.32;71.00;100778.56;5098880;27;46500;-48
2022/12/11 08:11:10;;;;;;;;;47.50;28.00;;;;;0.35;71.00;100788.88;5098993;27;45288;-50
2022/12/11 08:13:36;;;;;;;;;43.00;31.50;;;;;0.37;71.08;100781.78;5098992;27;45447;-51
2022/12/11 08:16:11;;;;;;;;;42.75;29.50;;;;;0.40;70.31;100776.38;5098904;27;45423;-52
2022/12/11 08:18:37;;;;;;;;;34.00;25.25;;;;;0.37;70.55;100777.38;5098641;27;47431;-53
2022/12/11 08:21:10;;;;;;;;;43.50;29.50;;;;;0.38;70.40;100783.44;5098692;27;45345;-52
2022/12/11 08:23:36;;;;;;;;;37.00;27.25;;;;;0.36;70.88;100787.94;5098803;27;45511;-49
2022/12/11 08:26:06;;;;;;;;;32.25;23.50;;;;;0.34;70.99;100797.63;5098873;27;45379;-51
2022/12/11 08:28:32;;;;;;;;;38.25;30.25;;;;;0.27;70.51;100788.41;5098430;27;45337;-52
2022/12/11 08:30:58;;;;;;;;;38.50;20.00;;;;;0.29;70.25;100791.78;5098730;27;45303;-53
2022/12/11 08:33:23;;;;;;;;;36.50;26.00;;;;;0.28;70.63;100782.25;5098690;27;45462;-53
2022/12/11 08:35:49;;;;;;;;;44.25;31.00;;;;;0.21;70.35;100782.59;5098331;27;45312;-52
2022/12/11 08:38:15;;;;;;;;;36.50;24.50;;;;;0.24;70.26;100779.78;5096698;27;45401;-51
2022/12/11 08:40:40;;;;;;;;;31.75;27.00;;;;;0.25;69.92;100788.47;5098460;27;45424;-55
2022/12/11 08:43:06;;;;;;;;;36.50;26.00;;;;;0.26;70.36;100784.13;5098462;27;45251;-54
2022/12/11 08:45:31;;;;;;;;;46.00;29.00;;;;;0.26;70.21;100784.13;5098710;27;45330;-52
2022/12/11 08:47:58;;;;;;;;;43.50;28.50;;;;;0.26;70.51;100786.75;5097860;27;46170;-51
2022/12/11 08:50:23;;;;;;;;;45.25;31.75;;;;;0.30;70.61;100790.88;5097983;27;45468;-53
2022/12/11 08:52:48;;;;;;;;;35.75;24.50;;;;;0.22;70.21;100779.03;5098390;27;45345;-52
2022/12/11 08:55:14;;;;;;;;;26.75;23.25;;;;;0.34;69.52;100798.50;5098511;27;45249;-51
2022/12/11 08:57:39;;;;;;;;;30.75;23.00;;;;;0.32;69.51;100808.19;5098468;27;45361;-53
2022/12/11 09:00:08;;;;;;;;;34.75;27.25;;;;;0.27;69.61;100796.28;5098064;27;45345;-52
2022/12/11 09:02:33;;;;;;;;;32.00;27.25;;;;;0.28;69.71;100793.56;5098156;27;45353;-53
2022/12/11 09:04:59;;;;;;;;;45.00;28.25;;;;;0.29;70.19;100791.78;5098375;27;45361;-50
2022/12/11 09:07:25;;;;;;;;;43.00;29.25;;;;;0.29;69.63;100783.94;5097885;27;46157;-51
2022/12/11 09:09:53;;;;;;;;;42.00;30.00;;;;;0.18;70.08;100767.03;5097925;27;45397;-53
2022/12/11 09:12:18;;;;;;;;;40.75;31.50;;;;;0.24;69.60;100785.03;5098044;27;45279;-51
2022/12/11 09:14:44;;;;;;;;;33.25;28.00;;;;;0.30;70.26;100785.66;5098199;27;45221;-53
2022/12/11 09:17:09;;;;;;;;;29.75;18.00;;;;;0.30;69.28;100788.28;5098100;27;45514;-50
2022/12/11 09:19:34;;;;;;;;;28.00;25.00;;;;;0.27;69.38;100785.81;5097742;27;45305;-50
2022/12/11 09:22:00;;;;;;;;;20.00;19.00;;;;;0.27;69.41;100791.03;5097848;27;45394;-50
2022/12/11 09:24:26;;;;;;;;;28.75;25.50;;;;;0.26;69.29;100794.59;5098327;27;45484;-53
2022/12/11 09:26:51;;;;;;;;;35.00;23.75;;;;;0.18;69.56;100781.91;5097462;27;46259;-51
2022/12/11 09:29:16;;;;;;;;;31.00;22.00;;;;;0.22;69.20;100789.50;5097685;27;45282;-52
2022/12/11 09:31:42;;;;;;;;;31.75;30.00;;;;;0.18;69.39;100785.34;5097839;27;45424;-50
2022/12/11 09:34:10;;;;;;;;;38.25;31.50;;;;;0.16;69.66;100789.81;5097753;27;45259;-52
2022/12/11 09:36:38;;;;;;;;;32.25;25.25;;;;;0.20;69.31;100801.81;5097659;27;46205;-51
2022/12/11 09:39:05;;;;;;;;;31.75;22.75;;;;;0.17;69.18;100790.66;5097594;27;45258;-53
2022/12/11 09:41:39;;;;;;;;;31.25;25.25;;;;;0.18;69.31;100800.22;5097832;27;45347;-50
2022/12/11 09:44:24;;;;;;;;;27.50;19.75;;;;;0.14;69.06;100799.53;5097844;27;45319;-51
2022/12/11 09:46:50;;;;;;;;;34.25;24.50;;;;;0.14;69.49;100798.69;5097499;27;47360;-49
2022/12/11 09:49:25;;;;;;;;;23.25;19.00;;;;;0.14;68.84;100799.53;5096651;27;45308;-49
2022/12/11 09:52:24;;;;;;;;;26.75;21.00;;;;;0.11;69.57;100809.28;5097481;27;45320;-49
2022/12/11 09:54:56;;;;;;;;;34.75;25.25;;;;;0.09;69.75;100803.31;5097678;27;45463;-53
2022/12/11 09:57:46;;;;;;;;;42.00;30.50;;;;;0.09;69.42;100808.53;5097332;27;45436;-53
2022/12/11 10:00:15;;;;;;;;;39.25;27.50;;;;;0.07;69.58;100803.38;5097246;27;45324;-50
2022/12/11 10:03:18;;;;;;;;;32.00;24.00;;;;;0.06;69.91;100809.53;5097290;27;45291;-53
2022/12/11 10:06:11;;;;;;;;;32.00;19.00;;;;;0.11;69.49;100812.75;5054523;28;45350;-53
2022/12/11 10:09:04;;;;;;;;;37.25;24.50;;;;;0.12;69.76;100827.50;5037133;28;47104;-53
2022/12/11 10:11:49;;;;;;;;;31.00;25.25;;;;;0.11;69.16;100823.22;4994143;28;45479;-48
2022/12/11 10:14:35;;;;;;;;;41.75;28.00;;;;;0.13;70.21;100810.91;4994397;28;45448;-50
2022/12/11 10:17:04;;;;;;;;;41.25;30.00;;;;;0.18;69.84;100806.28;4994360;28;45406;-52
2022/12/11 10:19:31;;;;;;;;;35.25;29.00;;;;;0.27;69.45;100801.50;4977492;28;46115;-52
2022/12/11 10:21:58;;;;;;;;;37.00;25.75;;;;;0.34;69.88;100801.13;4994118;28;45476;-49
2022/12/11 10:24:35;;;;;;;;;30.00;24.50;;;;;0.44;70.05;100798.84;4994461;28;45297;-51
2022/12/11 10:27:12;;;;;;;;;41.25;33.50;;;;;0.54;69.22;100800.03;4994362;28;45479;-50
2022/12/11 10:29:38;;;;;;;;;39.00;28.25;;;;;0.61;69.41;100790.09;4993853;28;45525;-51
2022/12/11 10:32:12;;;;;;;;;29.25;25.25;;;;;0.61;68.97;100772.63;4994100;28;45457;-52
2022/12/11 10:34:43;;;;;;;;;23.25;22.00;;;;;0.74;68.76;100781.50;4993899;28;45360;-51
2022/12/11 10:37:08;;;;;;;;;33.50;22.00;;;;;0.77;68.73;100775.25;4994295;28;45411;-52
2022/12/11 10:39:33;;;;;;;;;38.75;27.50;;;;;0.80;68.25;100775.09;4993937;28;45477;-52
2022/12/11 10:42:02;;;;;;;;;39.50;27.00;;;;;0.87;68.60;100770.34;5010818;28;45362;-52
2022/12/11 10:44:29;;;;;;;;;18.50;14.25;;;;;0.93;68.26;100780.53;5033871;28;45554;-51
2022/12/11 10:47:13;;;;;;;;;30.50;19.75;;;;;0.94;67.80;100764.72;5034133;28;45284;-52
2022/12/11 10:49:43;;;;;;;;;35.00;25.50;;;;;0.95;67.26;100770.78;5094171;27;45559;-53
2022/12/11 10:52:19;;;;;;;;;25.25;19.25;;;;;0.94;67.57;100771.72;5096839;27;45396;-53
2022/12/11 10:54:53;;;;;;;;;35.25;30.00;;;;;0.86;67.35;100764.28;5096868;27;45452;-52
2022/12/11 10:57:27;;;;;;;;;36.75;24.75;;;;;0.85;67.65;100765.22;5096709;27;45345;-50
2022/12/11 10:59:54;;;;;;;;;31.25;18.00;;;;;0.90;68.31;100768.41;5097595;27;45337;-50
2022/12/11 11:02:35;;;;;;;;;31.50;24.00;;;;;0.82;67.73;100747.03;5100628;27;45489;-50
2022/12/11 11:05:31;;;;;;;;;31.25;24.50;;;;;0.95;67.34;100745.44;5100690;27;45408;-48
2022/12/11 11:08:13;;;;;;;;;32.00;24.75;;;;;0.97;67.81;100761.94;5100113;27;45284;-53
2022/12/11 11:10:50;;;;;;;;;37.50;24.00;;;;;0.95;67.16;100753.28;5099689;27;46114;-50
2022/12/11 11:13:16;;;;;;;;;26.00;23.50;;;;;1.00;67.22;100751.25;5099798;27;45445;-49
2022/12/11 11:15:41;;;;;;;;;37.00;24.25;;;;;1.05;67.50;100743.13;5100059;27;45736;-52
2022/12/11 11:18:20;;;;;;;;;29.25;24.75;;;;;0.98;67.13;100724.31;5100282;27;45371;-53
2022/12/11 11:20:47;;;;;;;;;36.75;24.50;;;;;1.08;66.63;100736.91;5100087;27;46054;-50
2022/12/11 11:23:15;;;;;;;;;38.25;27.75;;;;;1.09;66.43;100733.34;5100336;27;45391;-50
2022/12/11 11:25:51;;;;;;;;;41.75;27.75;;;;;1.20;66.83;100738.81;5100771;27;45228;-51
2022/12/11 11:28:39;;;;;;;;;26.00;20.00;;;;;1.24;66.26;100735.94;5100083;27;45327;-50
2022/12/11 11:31:10;;;;;;;;;32.25;27.50;;;;;0.91;66.41;100683.69;5099466;27;46517;-51
2022/12/11 11:33:44;;;;;;;;;27.00;22.50;;;;;1.36;66.09;100742.25;5099327;27;45481;-48
2022/12/11 11:36:27;;;;;;;;;24.50;22.00;;;;;1.33;66.32;100728.50;5099498;27;45165;-51